Terminal Aerodrome Forecast
Issued by NWS Los Angeles, CA

Home | Current Version | Previous Version | Text Only | Print | Product List | Glossary On
Versions: 1 2 3 4 5 6 7 8 9 10 11 12 13 14 15 16 17 18 19 20 21 22
560
FTUS46 KLOX 132339
TAFSMX
TAF
KSMX 132339Z 1400/1424 32010KT P6SM SKC WS020/03020KT
     FM140600 36007KT P6SM SKC
     FM141700 01014G22KT P6SM SKC
     FM142100 33014G22KT P6SM SKC=

USA.gov is the U.S. government's official web portal to all federal, state and local government web resources and services.